createdAt,value
2022-12-08T00:00:45.441Z,21.34
2022-12-08T00:01:30.672Z,21.38
2022-12-08T00:02:26.304Z,21.37
2022-12-08T00:03:21.910Z,21.43
2022-12-08T00:04:17.290Z,21.40
2022-12-08T00:05:12.836Z,21.40
2022-12-08T00:06:08.386Z,21.37
2022-12-08T00:07:03.918Z,21.40
2022-12-08T00:07:59.495Z,21.40
2022-12-08T00:08:55.008Z,21.41
2022-12-08T00:09:50.548Z,21.40
2022-12-08T00:10:50.064Z,21.38
2022-12-08T00:11:41.638Z,21.38
2022-12-08T00:12:26.303Z,21.35
2022-12-08T00:13:21.856Z,21.37
2022-12-08T00:14:17.385Z,21.40
2022-12-08T00:15:02.419Z,21.40
2022-12-08T00:15:57.599Z,21.38
2022-12-08T00:16:53.269Z,21.35
2022-12-08T00:17:48.683Z,21.40
2022-12-08T00:18:44.219Z,21.37
2022-12-08T00:19:39.772Z,21.38
2022-12-08T00:20:35.315Z,21.32
2022-12-08T00:21:30.867Z,21.29
2022-12-08T00:22:26.419Z,21.26
2022-12-08T00:23:21.956Z,21.29
2022-12-08T00:24:06.631Z,21.35
2022-12-08T00:25:02.527Z,21.30
2022-12-08T00:25:57.722Z,21.25
2022-12-08T00:26:53.263Z,21.25
2022-12-08T00:27:48.814Z,21.35
2022-12-08T00:28:44.371Z,21.29
2022-12-08T00:29:39.891Z,21.29
2022-12-08T00:30:35.426Z,21.30
2022-12-08T00:31:31.027Z,21.26
2022-12-08T00:32:26.520Z,21.29
2022-12-08T00:33:22.142Z,21.28
2022-12-08T00:34:17.687Z,21.19
2022-12-08T00:35:13.233Z,21.23
2022-12-08T00:36:08.768Z,21.19
2022-12-08T00:37:04.304Z,21.22
2022-12-08T00:38:01.070Z,21.22
2022-12-08T00:38:55.403Z,21.25
2022-12-08T00:39:50.946Z,21.18
2022-12-08T00:40:46.507Z,21.28
2022-12-08T00:41:42.039Z,21.14
2022-12-08T00:42:37.580Z,21.20
2022-12-08T00:43:33.117Z,21.22
2022-12-08T00:44:29.157Z,21.22
2022-12-08T00:45:24.679Z,21.16
2022-12-08T00:46:20.262Z,21.16
2022-12-08T00:47:17.695Z,21.19
2022-12-08T00:48:11.283Z,21.23
2022-12-08T00:49:06.829Z,21.10
2022-12-08T00:50:02.807Z,21.22
2022-12-08T00:50:57.919Z,21.08
2022-12-08T00:51:53.460Z,21.20
2022-12-08T00:52:49.008Z,21.11
2022-12-08T00:53:44.545Z,21.07
2022-12-08T00:54:40.081Z,21.13
2022-12-08T00:55:35.649Z,21.13
2022-12-08T00:56:31.186Z,21.14
2022-12-08T00:57:26.720Z,21.07
2022-12-08T00:58:22.264Z,21.11
2022-12-08T00:59:17.803Z,21.14
2022-12-08T01:00:13.352Z,21.13
2022-12-08T01:01:08.908Z,21.11
2022-12-08T01:02:04.430Z,21.14
2022-12-08T01:03:00.026Z,21.08
2022-12-08T01:03:56.006Z,21.10
2022-12-08T01:04:40.676Z,21.14
2022-12-08T01:05:36.218Z,21.08
2022-12-08T01:06:31.769Z,21.16
2022-12-08T01:07:27.305Z,21.10
2022-12-08T01:08:22.929Z,21.18
2022-12-08T01:09:18.386Z,21.22
2022-12-08T01:10:14.405Z,21.11
2022-12-08T01:11:09.952Z,21.10
2022-12-08T01:12:05.479Z,21.13
2022-12-08T01:13:01.021Z,21.14
2022-12-08T01:13:56.571Z,21.19
2022-12-08T01:14:52.113Z,21.19
2022-12-08T01:15:47.678Z,21.07
2022-12-08T01:16:43.291Z,21.11
2022-12-08T01:17:38.763Z,21.08
2022-12-08T01:18:23.429Z,21.16
2022-12-08T01:19:18.961Z,21.13
2022-12-08T01:20:14.499Z,21.05
2022-12-08T01:21:10.036Z,21.08
2022-12-08T01:22:05.575Z,21.11
2022-12-08T01:23:01.124Z,21.07
2022-12-08T01:23:56.661Z,21.08
2022-12-08T01:24:52.216Z,21.10
2022-12-08T01:25:47.723Z,21.11
2022-12-08T01:26:43.268Z,21.07
2022-12-08T01:27:38.810Z,21.10
2022-12-08T01:28:34.351Z,20.97
2022-12-08T01:29:29.887Z,21.07
2022-12-08T01:30:25.455Z,21.10
2022-12-08T01:31:21.047Z,20.95
2022-12-08T01:32:16.521Z,21.07
2022-12-08T01:33:12.056Z,21.07
2022-12-08T01:34:07.603Z,21.03
2022-12-08T01:35:03.146Z,21.03
2022-12-08T01:35:58.684Z,20.97
2022-12-08T01:36:54.225Z,20.97
2022-12-08T01:37:49.774Z,21.03
2022-12-08T01:38:45.326Z,21.04
2022-12-08T01:39:40.868Z,21.01
2022-12-08T01:40:36.408Z,20.97
2022-12-08T01:41:31.954Z,21.05
2022-12-08T01:42:27.485Z,21.05
2022-12-08T01:43:12.151Z,21.13
2022-12-08T01:44:07.692Z,21.00
2022-12-08T01:45:03.247Z,21.05
2022-12-08T01:45:58.829Z,21.00
2022-12-08T01:46:54.363Z,21.10
2022-12-08T01:47:49.992Z,20.98
2022-12-08T01:48:45.422Z,21.14
2022-12-08T01:49:40.983Z,21.11
2022-12-08T01:50:36.507Z,21.13
2022-12-08T01:51:32.050Z,21.04
2022-12-08T01:52:27.589Z,21.10
2022-12-08T01:53:23.132Z,21.04
2022-12-08T01:54:19.176Z,21.07
2022-12-08T01:55:14.722Z,21.08
2022-12-08T01:56:10.274Z,21.08
2022-12-08T01:57:05.806Z,21.08
2022-12-08T01:58:01.359Z,20.98
2022-12-08T01:58:56.896Z,21.10
2022-12-08T01:59:41.551Z,21.01
2022-12-08T02:00:37.121Z,21.07
2022-12-08T02:01:32.682Z,21.03
2022-12-08T02:02:28.295Z,21.08
2022-12-08T02:03:23.735Z,20.97
2022-12-08T02:04:19.277Z,21.00
2022-12-08T02:05:14.808Z,21.05
2022-12-08T02:06:10.386Z,21.03
2022-12-08T02:07:08.124Z,21.00
2022-12-08T02:08:01.552Z,20.98
2022-12-08T02:08:57.029Z,20.97
2022-12-08T02:09:52.569Z,21.01
2022-12-08T02:10:48.109Z,21.07
2022-12-08T02:11:43.642Z,21.11
2022-12-08T02:12:39.187Z,21.05
2022-12-08T02:13:34.724Z,21.04
2022-12-08T02:14:30.270Z,21.05
2022-12-08T02:15:25.816Z,21.01
2022-12-08T02:16:21.425Z,20.97
2022-12-08T02:17:16.887Z,20.95
2022-12-08T02:18:12.462Z,21.05
2022-12-08T02:19:30.341Z,21.07
2022-12-08T02:20:03.842Z,21.04
2022-12-08T02:20:59.071Z,20.97
2022-12-08T02:21:54.614Z,21.01
2022-12-08T02:22:50.161Z,21.03
2022-12-08T02:23:45.697Z,21.00
2022-12-08T02:24:41.881Z,21.05
2022-12-08T02:25:37.382Z,21.04
2022-12-08T02:26:32.919Z,21.01
2022-12-08T02:27:28.469Z,21.03
2022-12-08T02:28:24.013Z,20.97
2022-12-08T02:29:19.559Z,20.95
2022-12-08T02:30:15.088Z,20.98
2022-12-08T02:31:10.709Z,21.04
2022-12-08T02:32:06.173Z,20.95
2022-12-08T02:33:02.231Z,21.01
2022-12-08T02:33:46.719Z,20.98
2022-12-08T02:34:42.254Z,20.95
2022-12-08T02:35:37.799Z,20.92
2022-12-08T02:36:33.328Z,21.01
2022-12-08T02:37:28.875Z,20.97
2022-12-08T02:38:24.432Z,21.03
2022-12-08T02:39:19.975Z,21.01
2022-12-08T02:40:15.513Z,20.98
2022-12-08T02:41:00.186Z,20.98
2022-12-08T02:41:55.734Z,20.92
2022-12-08T02:42:40.408Z,21.00
2022-12-08T02:43:35.940Z,20.95
2022-12-08T02:44:31.482Z,20.92
2022-12-08T02:45:27.033Z,20.93
2022-12-08T02:46:22.649Z,20.95
2022-12-08T02:47:18.108Z,20.90
2022-12-08T02:48:13.727Z,20.95
2022-12-08T02:49:09.309Z,20.93
2022-12-08T02:50:05.089Z,20.93
2022-12-08T02:51:00.374Z,20.93
2022-12-08T02:51:55.903Z,20.90
2022-12-08T02:52:51.438Z,20.93
2022-12-08T02:53:46.992Z,20.83
2022-12-08T02:54:42.540Z,20.82
2022-12-08T02:55:38.076Z,20.86
2022-12-08T02:56:33.612Z,20.88
2022-12-08T02:57:29.154Z,20.86
2022-12-08T02:58:24.695Z,20.85
2022-12-08T02:59:20.235Z,20.90
2022-12-08T03:00:15.794Z,20.83
2022-12-08T03:01:11.385Z,20.93
2022-12-08T03:02:06.868Z,20.89
2022-12-08T03:03:02.448Z,20.86
2022-12-08T03:03:57.952Z,20.82
2022-12-08T03:04:53.505Z,20.89
2022-12-08T03:05:49.036Z,20.85
2022-12-08T03:06:44.587Z,20.89
2022-12-08T03:07:40.148Z,20.89
2022-12-08T03:08:35.661Z,20.89
2022-12-08T03:09:31.198Z,20.92
2022-12-08T03:10:26.736Z,20.86
2022-12-08T03:11:22.283Z,20.86
2022-12-08T03:12:17.829Z,20.85
2022-12-08T03:13:13.369Z,20.82
2022-12-08T03:14:08.916Z,20.82
2022-12-08T03:15:04.457Z,20.88
2022-12-08T03:16:00.043Z,20.83
2022-12-08T03:16:55.555Z,20.79
2022-12-08T03:17:51.101Z,20.82
2022-12-08T03:18:46.644Z,20.83
2022-12-08T03:19:42.190Z,20.80
2022-12-08T03:20:37.747Z,20.80
2022-12-08T03:21:33.278Z,20.86
2022-12-08T03:22:28.833Z,20.80
2022-12-08T03:23:24.361Z,20.89
2022-12-08T03:24:19.902Z,20.83
2022-12-08T03:25:04.562Z,20.80
2022-12-08T03:26:00.109Z,20.79
2022-12-08T03:26:55.650Z,20.77
2022-12-08T03:27:51.192Z,20.90
2022-12-08T03:28:46.730Z,20.83
2022-12-08T03:29:42.270Z,20.82
2022-12-08T03:30:37.802Z,20.89
2022-12-08T03:31:33.388Z,20.89
2022-12-08T03:32:28.879Z,20.75
2022-12-08T03:33:24.428Z,20.80
2022-12-08T03:34:19.977Z,20.86
2022-12-08T03:35:15.528Z,20.85
2022-12-08T03:36:11.095Z,20.80
2022-12-08T03:37:06.621Z,20.79
2022-12-08T03:38:02.159Z,20.88
2022-12-08T03:38:57.709Z,20.80
2022-12-08T03:39:53.246Z,20.86
2022-12-08T03:40:48.781Z,20.86
2022-12-08T03:41:44.314Z,20.82
2022-12-08T03:42:39.857Z,20.80
2022-12-08T03:43:35.406Z,20.88
2022-12-08T03:44:30.952Z,20.77
2022-12-08T03:45:26.496Z,20.80
2022-12-08T03:46:43.042Z,20.80
2022-12-08T03:47:38.587Z,20.75
2022-12-08T03:48:34.132Z,20.75
2022-12-08T03:49:29.672Z,20.74
2022-12-08T03:50:25.208Z,20.82
2022-12-08T03:51:20.778Z,20.79
2022-12-08T03:52:16.302Z,20.77
2022-12-08T03:53:11.840Z,20.80
2022-12-08T03:54:07.392Z,20.79
2022-12-08T03:55:02.925Z,20.75
2022-12-08T03:55:58.472Z,20.74
2022-12-08T03:57:01.175Z,20.80
2022-12-08T03:57:56.722Z,20.77
2022-12-08T03:58:52.273Z,20.74
2022-12-08T03:59:47.816Z,20.79
2022-12-08T04:00:43.359Z,20.82
2022-12-08T04:01:38.943Z,20.75
2022-12-08T04:02:34.483Z,20.75
2022-12-08T04:03:30.128Z,20.73
2022-12-08T04:04:25.675Z,20.83
2022-12-08T04:05:21.215Z,20.74
2022-12-08T04:06:05.885Z,20.75
2022-12-08T04:07:01.449Z,20.80
2022-12-08T04:07:56.978Z,20.77
2022-12-08T04:08:52.511Z,20.74
2022-12-08T04:09:48.045Z,20.83
2022-12-08T04:10:43.583Z,20.82
2022-12-08T04:11:39.121Z,20.79
2022-12-08T04:12:35.256Z,20.79
2022-12-08T04:13:30.799Z,20.74
2022-12-08T04:14:26.369Z,20.77
2022-12-08T04:15:21.885Z,20.79
2022-12-08T04:16:06.641Z,20.71
2022-12-08T04:17:02.124Z,20.80
2022-12-08T04:17:57.655Z,20.80
2022-12-08T04:18:53.207Z,20.79
2022-12-08T04:19:37.871Z,20.79
2022-12-08T04:20:34.419Z,20.75
2022-12-08T04:21:29.973Z,20.73
2022-12-08T04:22:25.537Z,20.75
2022-12-08T04:23:21.059Z,20.73
2022-12-08T04:24:16.609Z,20.75
2022-12-08T04:25:12.158Z,20.71
2022-12-08T04:26:07.703Z,20.73
2022-12-08T04:27:03.258Z,20.74
2022-12-08T04:27:58.822Z,20.71
2022-12-08T04:28:54.365Z,20.70
2022-12-08T04:29:49.904Z,20.75
2022-12-08T04:30:45.452Z,20.68
2022-12-08T04:31:41.030Z,20.73
2022-12-08T04:32:36.547Z,20.70
2022-12-08T04:33:32.078Z,20.71
2022-12-08T04:34:27.612Z,20.77
2022-12-08T04:35:23.160Z,20.73
2022-12-08T04:36:18.724Z,20.70
2022-12-08T04:37:14.263Z,20.68
2022-12-08T04:38:09.830Z,20.74
2022-12-08T04:39:05.854Z,20.73
2022-12-08T04:40:01.618Z,20.70
2022-12-08T04:40:46.079Z,20.74
2022-12-08T04:41:41.628Z,20.73
2022-12-08T04:42:37.151Z,20.71
2022-12-08T04:43:21.814Z,20.82
2022-12-08T04:44:17.354Z,20.74
2022-12-08T04:45:12.891Z,20.86
2022-12-08T04:45:57.557Z,20.88
2022-12-08T04:46:43.801Z,20.77
2022-12-08T04:47:37.768Z,20.75
2022-12-08T04:48:33.302Z,20.92
2022-12-08T04:49:28.852Z,20.88
2022-12-08T04:50:24.412Z,20.93
2022-12-08T04:51:20.007Z,20.95
2022-12-08T04:52:15.558Z,20.97
2022-12-08T04:53:00.228Z,20.98
2022-12-08T04:53:55.788Z,20.97
2022-12-08T04:54:51.309Z,21.08
2022-12-08T04:55:46.850Z,21.10
2022-12-08T04:56:42.397Z,21.13
2022-12-08T04:57:37.944Z,21.19
2022-12-08T04:58:33.482Z,21.20
2022-12-08T04:59:29.027Z,21.20
2022-12-08T05:00:24.575Z,21.19
2022-12-08T05:01:20.168Z,21.22
2022-12-08T05:02:15.824Z,21.26
2022-12-08T05:03:11.191Z,21.28
2022-12-08T05:04:06.729Z,21.28
2022-12-08T05:05:02.270Z,21.28
2022-12-08T05:05:57.805Z,21.28
2022-12-08T05:06:53.349Z,21.25
2022-12-08T05:07:48.904Z,21.22
2022-12-08T05:08:44.423Z,21.26
2022-12-08T05:09:39.993Z,21.26
2022-12-08T05:10:35.508Z,21.29
2022-12-08T05:11:31.055Z,21.29
2022-12-08T05:12:26.597Z,21.22
2022-12-08T05:13:22.142Z,21.26
2022-12-08T05:14:17.693Z,21.38
2022-12-08T05:15:13.725Z,21.41
2022-12-08T05:16:09.382Z,21.34
2022-12-08T05:16:53.759Z,21.38
2022-12-08T05:17:49.311Z,21.41
2022-12-08T05:18:44.845Z,21.38
2022-12-08T05:19:29.516Z,21.43
2022-12-08T05:20:14.188Z,21.43
2022-12-08T05:21:09.727Z,21.51
2022-12-08T05:22:05.268Z,21.53
2022-12-08T05:23:00.818Z,21.55
2022-12-08T05:23:56.372Z,21.59
2022-12-08T05:24:51.943Z,21.51
2022-12-08T05:25:47.470Z,21.53
2022-12-08T05:26:43.004Z,21.56
2022-12-08T05:27:38.548Z,21.63
2022-12-08T05:28:42.934Z,21.66
2022-12-08T05:29:29.645Z,21.55
2022-12-08T05:30:25.191Z,21.62
2022-12-08T05:31:09.962Z,21.60
2022-12-08T05:31:54.607Z,21.50
2022-12-08T05:32:50.061Z,21.55
2022-12-08T05:33:45.620Z,21.58
2022-12-08T05:34:41.168Z,21.55
2022-12-08T05:35:36.725Z,21.51
2022-12-08T05:36:32.285Z,21.48
2022-12-08T05:37:27.823Z,21.58
2022-12-08T05:38:23.368Z,21.53
2022-12-08T05:39:18.906Z,21.59
2022-12-08T05:40:14.468Z,21.50
2022-12-08T05:41:10.007Z,21.53
2022-12-08T05:42:05.550Z,21.55
2022-12-08T05:43:01.112Z,21.50
2022-12-08T05:43:56.672Z,21.45
2022-12-08T05:44:52.216Z,21.44
2022-12-08T05:45:47.879Z,21.43
2022-12-08T05:46:32.436Z,21.41
2022-12-08T05:47:31.769Z,21.47
2022-12-08T05:48:23.522Z,21.47
2022-12-08T05:49:19.059Z,21.51
2022-12-08T05:50:14.603Z,21.51
2022-12-08T05:51:10.148Z,21.43
2022-12-08T05:52:05.692Z,21.47
2022-12-08T05:53:01.230Z,21.47
2022-12-08T05:53:56.784Z,21.53
2022-12-08T05:54:52.355Z,21.43
2022-12-08T05:55:47.979Z,21.51
2022-12-08T05:56:43.502Z,21.51
2022-12-08T05:57:39.064Z,21.55
2022-12-08T05:58:34.595Z,21.51
2022-12-08T05:59:30.132Z,21.51
2022-12-08T06:00:25.678Z,21.53
2022-12-08T06:01:21.227Z,21.44
2022-12-08T06:02:16.867Z,21.48
2022-12-08T06:03:12.371Z,21.60
2022-12-08T06:04:07.871Z,21.58
2022-12-08T06:05:03.467Z,21.67
2022-12-08T06:05:59.011Z,21.60
2022-12-08T06:06:54.562Z,21.58
2022-12-08T06:07:50.130Z,21.65
2022-12-08T06:08:45.644Z,21.67
2022-12-08T06:09:41.202Z,21.75
2022-12-08T06:10:36.740Z,21.73
2022-12-08T06:11:21.441Z,21.80
2022-12-08T06:12:16.967Z,21.78
2022-12-08T06:13:12.512Z,21.78
2022-12-08T06:14:08.055Z,21.84
2022-12-08T06:15:03.601Z,21.78
2022-12-08T06:15:59.148Z,21.80
2022-12-08T06:16:54.794Z,21.78
2022-12-08T06:17:50.741Z,21.69
2022-12-08T06:18:46.288Z,21.66
2022-12-08T06:19:42.337Z,21.73
2022-12-08T06:20:37.882Z,21.69
2022-12-08T06:21:33.424Z,21.71
2022-12-08T06:22:28.968Z,21.56
2022-12-08T06:23:24.516Z,21.60
2022-12-08T06:24:20.059Z,21.60
2022-12-08T06:25:15.599Z,21.56
2022-12-08T06:26:11.139Z,21.62
2022-12-08T06:27:06.700Z,21.62
2022-12-08T06:28:02.231Z,21.55
2022-12-08T06:28:57.780Z,21.58
2022-12-08T06:29:53.322Z,21.62
2022-12-08T06:30:48.870Z,21.62
2022-12-08T06:31:44.503Z,21.60
2022-12-08T06:32:40.460Z,21.60
2022-12-08T06:33:35.992Z,21.59
2022-12-08T06:34:31.531Z,21.55
2022-12-08T06:35:27.090Z,21.50
2022-12-08T06:36:23.130Z,21.45
2022-12-08T06:37:18.678Z,21.51
2022-12-08T06:38:14.229Z,21.50
2022-12-08T06:39:09.770Z,21.55
2022-12-08T06:40:05.575Z,21.51
2022-12-08T06:41:00.888Z,21.53
2022-12-08T06:41:56.431Z,21.59
2022-12-08T06:42:52.003Z,21.53
2022-12-08T06:43:47.526Z,21.60
2022-12-08T06:44:43.560Z,21.51
2022-12-08T06:45:39.129Z,21.59
2022-12-08T06:46:34.707Z,21.50
2022-12-08T06:47:24.672Z,21.50
2022-12-08T06:48:14.876Z,21.51
2022-12-08T06:49:10.438Z,21.47
2022-12-08T06:50:06.285Z,21.50
2022-12-08T06:51:01.500Z,21.51
2022-12-08T06:51:57.031Z,21.55
2022-12-08T06:53:01.146Z,21.45
2022-12-08T06:53:48.130Z,21.48
2022-12-08T06:54:43.672Z,21.48
2022-12-08T06:56:34.750Z,21.45
2022-12-08T06:57:30.298Z,21.51
2022-12-08T06:58:25.856Z,21.43
2022-12-08T06:59:21.387Z,21.48
2022-12-08T07:00:16.921Z,21.45
2022-12-08T07:01:12.531Z,21.50
2022-12-08T07:02:08.023Z,21.48
2022-12-08T07:03:03.545Z,21.47
2022-12-08T07:03:59.084Z,21.51
2022-12-08T07:04:54.627Z,21.45
2022-12-08T07:05:50.178Z,21.58
2022-12-08T07:06:57.125Z,21.51
2022-12-08T07:07:52.733Z,21.51
2022-12-08T07:08:48.216Z,21.53
2022-12-08T07:09:43.793Z,21.53
2022-12-08T07:10:39.333Z,21.48
2022-12-08T07:11:34.868Z,21.56
2022-12-08T07:12:30.410Z,21.47
2022-12-08T07:13:25.960Z,21.50
2022-12-08T07:14:21.521Z,21.47
2022-12-08T07:15:17.046Z,21.40
2022-12-08T07:16:12.732Z,21.38
2022-12-08T07:17:08.254Z,21.45
2022-12-08T07:18:03.670Z,21.48
2022-12-08T07:18:59.826Z,21.44
2022-12-08T07:19:55.405Z,21.50
2022-12-08T07:20:50.957Z,21.38
2022-12-08T07:21:46.523Z,21.43
2022-12-08T07:22:42.069Z,21.35
2022-12-08T07:23:37.606Z,21.44
2022-12-08T07:24:33.149Z,21.40
2022-12-08T07:25:28.691Z,21.50
2022-12-08T07:26:24.232Z,21.55
2022-12-08T07:27:19.777Z,21.50
2022-12-08T07:28:15.374Z,21.44
2022-12-08T07:29:10.974Z,21.59
2022-12-08T07:29:55.646Z,21.43
2022-12-08T07:30:51.317Z,21.55
2022-12-08T07:31:46.717Z,21.56
2022-12-08T07:32:42.264Z,21.50
2022-12-08T07:33:37.806Z,21.41
2022-12-08T07:34:33.347Z,21.47
2022-12-08T07:35:28.897Z,21.45
2022-12-08T07:36:24.438Z,21.53
2022-12-08T07:37:19.984Z,21.45
2022-12-08T07:38:15.522Z,21.50
2022-12-08T07:39:11.068Z,21.53
2022-12-08T07:40:07.094Z,21.43
2022-12-08T07:41:02.148Z,21.45
2022-12-08T07:41:57.702Z,21.40
2022-12-08T07:42:53.247Z,21.48
2022-12-08T07:43:48.796Z,21.35
2022-12-08T07:44:44.327Z,21.53
2022-12-08T07:45:39.925Z,21.47
2022-12-08T07:46:35.440Z,21.53
2022-12-08T07:47:30.971Z,21.50
2022-12-08T07:48:26.543Z,21.55
2022-12-08T07:49:22.064Z,21.51
2022-12-08T07:50:17.613Z,21.51
2022-12-08T07:51:13.152Z,21.50
2022-12-08T07:52:08.694Z,21.50
2022-12-08T07:53:04.235Z,21.45
2022-12-08T07:53:59.784Z,21.43
2022-12-08T07:54:55.337Z,21.51
2022-12-08T07:55:50.953Z,21.50
2022-12-08T07:56:46.414Z,21.53
2022-12-08T07:57:41.959Z,21.47
2022-12-08T07:58:37.501Z,21.47
2022-12-08T07:59:22.169Z,21.51
2022-12-08T08:00:17.765Z,21.44
2022-12-08T08:01:13.597Z,21.50
2022-12-08T08:02:23.401Z,21.50
2022-12-08T08:03:04.487Z,21.51
2022-12-08T08:04:03.651Z,21.55
2022-12-08T08:04:59.287Z,21.59
2022-12-08T08:05:43.604Z,21.60
2022-12-08T08:06:39.642Z,21.60
2022-12-08T08:07:35.668Z,21.55
2022-12-08T08:08:31.350Z,21.59
2022-12-08T08:09:26.772Z,21.73
2022-12-08T08:10:22.315Z,21.67
2022-12-08T08:11:14.570Z,21.71
2022-12-08T08:12:29.834Z,21.75
2022-12-08T08:12:58.766Z,21.69
2022-12-08T08:13:54.314Z,21.74
2022-12-08T08:14:49.863Z,21.69
2022-12-08T08:15:46.130Z,21.71
2022-12-08T08:16:41.701Z,21.71
2022-12-08T08:17:37.266Z,21.67
2022-12-08T08:18:21.616Z,21.73
2022-12-08T08:19:17.161Z,21.73
2022-12-08T08:20:13.204Z,21.69
2022-12-08T08:20:58.098Z,21.66
2022-12-08T08:21:53.454Z,21.71
2022-12-08T08:22:48.991Z,21.74
2022-12-08T08:23:55.600Z,21.59
2022-12-08T08:24:51.145Z,21.63
2022-12-08T08:25:46.709Z,21.66
2022-12-08T08:26:42.234Z,21.59
2022-12-08T08:27:26.716Z,21.62
2022-12-08T08:28:22.266Z,21.65
2022-12-08T08:29:17.803Z,21.65
2022-12-08T08:30:19.667Z,21.62
2022-12-08T08:31:08.954Z,21.63
2022-12-08T08:32:04.936Z,21.62
2022-12-08T08:33:00.457Z,21.56
2022-12-08T08:33:55.990Z,21.58
2022-12-08T08:34:51.522Z,21.62
2022-12-08T08:35:47.056Z,21.58
2022-12-08T08:36:42.670Z,21.62
2022-12-08T08:37:38.141Z,21.59
2022-12-08T08:38:33.675Z,21.66
2022-12-08T08:39:29.219Z,21.65
2022-12-08T08:40:24.794Z,21.60
2022-12-08T08:41:20.297Z,21.58
2022-12-08T08:42:15.846Z,21.63
2022-12-08T08:43:11.395Z,21.74
2022-12-08T08:44:06.936Z,21.55
2022-12-08T08:45:02.484Z,21.63
2022-12-08T08:45:58.120Z,21.67
2022-12-08T08:46:42.806Z,21.71
2022-12-08T08:47:38.276Z,21.66
2022-12-08T08:48:33.803Z,21.66
2022-12-08T08:49:29.337Z,21.67
2022-12-08T08:50:24.910Z,21.69
2022-12-08T08:51:20.421Z,21.69
2022-12-08T08:52:04.882Z,21.67
2022-12-08T08:53:00.449Z,21.78
2022-12-08T08:53:55.985Z,21.77
2022-12-08T08:54:51.524Z,21.77
2022-12-08T08:55:36.188Z,21.75
2022-12-08T08:56:31.725Z,21.69
2022-12-08T08:57:27.319Z,21.73
2022-12-08T08:58:11.741Z,21.78
2022-12-08T08:59:18.346Z,21.82
2022-12-08T09:00:13.890Z,21.69
2022-12-08T09:00:58.561Z,21.75
2022-12-08T09:01:54.256Z,21.81
2022-12-08T09:02:49.659Z,21.82
2022-12-08T09:03:45.188Z,21.74
2022-12-08T09:04:40.768Z,21.78
2022-12-08T09:05:36.418Z,21.88
2022-12-08T09:06:31.981Z,21.97
2022-12-08T09:07:27.372Z,21.94
2022-12-08T09:08:22.967Z,21.97
2022-12-08T09:09:18.456Z,21.88
2022-12-08T09:10:02.965Z,21.94
2022-12-08T09:10:48.091Z,21.93
2022-12-08T09:11:43.627Z,22.01
2022-12-08T09:12:39.158Z,21.91
2022-12-08T09:13:34.714Z,21.90
2022-12-08T09:14:30.271Z,21.96
2022-12-08T09:15:33.077Z,21.96
2022-12-08T09:16:17.526Z,21.97
2022-12-08T09:17:13.006Z,21.75
2022-12-08T09:18:08.573Z,21.80
2022-12-08T09:19:04.095Z,21.77
2022-12-08T09:19:59.677Z,21.74
2022-12-08T09:20:55.221Z,21.67
2022-12-08T09:21:50.820Z,21.78
2022-12-08T09:22:46.362Z,21.67
2022-12-08T09:23:41.906Z,21.71
2022-12-08T09:24:37.437Z,21.75
2022-12-08T09:25:32.981Z,21.66
2022-12-08T09:26:28.525Z,21.66
2022-12-08T09:27:24.070Z,21.69
2022-12-08T09:28:19.622Z,21.71
2022-12-08T09:29:15.160Z,21.71
2022-12-08T09:30:10.708Z,21.75
2022-12-08T09:31:06.335Z,21.65
2022-12-08T09:32:01.829Z,21.69
2022-12-08T09:32:57.367Z,21.58
2022-12-08T09:33:52.918Z,21.58
2022-12-08T09:34:52.119Z,21.63
2022-12-08T09:35:43.990Z,21.65
2022-12-08T09:36:39.607Z,21.63
2022-12-08T09:37:35.139Z,21.60
2022-12-08T09:38:30.688Z,21.66
2022-12-08T09:39:26.246Z,21.60
2022-12-08T09:40:21.783Z,21.58
2022-12-08T09:41:17.318Z,21.62
2022-12-08T09:42:12.868Z,21.63
2022-12-08T09:43:08.420Z,21.67
2022-12-08T09:44:03.955Z,21.67
2022-12-08T09:44:59.501Z,21.67
2022-12-08T09:45:55.074Z,21.69
2022-12-08T09:46:50.717Z,21.56
2022-12-08T09:47:46.150Z,21.73
2022-12-08T09:48:41.712Z,21.63
2022-12-08T09:49:37.273Z,21.63
2022-12-08T09:50:32.810Z,21.74
2022-12-08T09:51:28.384Z,21.66
2022-12-08T09:52:23.923Z,21.66
2022-12-08T09:53:19.469Z,21.56
2022-12-08T09:54:15.033Z,21.55
2022-12-08T09:55:10.569Z,21.58
2022-12-08T09:56:06.107Z,21.62
2022-12-08T09:56:50.770Z,21.58
2022-12-08T09:57:48.476Z,21.58
2022-12-08T09:58:41.851Z,21.59
2022-12-08T09:59:37.394Z,21.60
2022-12-08T10:00:32.938Z,21.62
2022-12-08T10:01:17.697Z,21.60
2022-12-08T10:02:02.352Z,21.63
2022-12-08T10:02:57.833Z,21.62
2022-12-08T10:03:53.352Z,21.62
2022-12-08T10:04:48.984Z,21.58
2022-12-08T10:07:23.650Z,21.58
2022-12-08T10:08:19.254Z,21.59
2022-12-08T10:09:18.351Z,21.51
2022-12-08T10:10:10.320Z,21.50
2022-12-08T10:11:05.874Z,21.59
2022-12-08T10:12:01.424Z,21.63
2022-12-08T10:12:56.972Z,21.58
2022-12-08T10:13:52.531Z,21.59
2022-12-08T10:14:48.062Z,21.62
2022-12-08T10:15:43.681Z,21.62
2022-12-08T10:16:39.295Z,21.60
2022-12-08T10:17:34.698Z,21.59
2022-12-08T10:18:30.262Z,21.56
2022-12-08T10:19:25.818Z,21.62
2022-12-08T10:20:21.374Z,21.53
2022-12-08T10:21:16.917Z,21.63
2022-12-08T10:22:12.461Z,21.51
2022-12-08T10:23:07.999Z,21.59
2022-12-08T10:24:03.540Z,21.55
2022-12-08T10:24:59.086Z,21.55
2022-12-08T10:25:54.627Z,21.55
2022-12-08T10:26:50.166Z,21.53
2022-12-08T10:27:45.698Z,21.51
2022-12-08T10:28:44.716Z,21.53
2022-12-08T10:29:36.785Z,21.51
2022-12-08T10:30:32.327Z,21.48
2022-12-08T10:31:28.009Z,21.58
2022-12-08T10:32:23.419Z,21.59
2022-12-08T10:33:18.965Z,21.58
2022-12-08T10:34:03.637Z,21.60
2022-12-08T10:34:59.168Z,21.60
2022-12-08T10:35:54.735Z,21.60
2022-12-08T10:36:50.253Z,21.55
2022-12-08T10:37:45.816Z,21.56
2022-12-08T10:38:41.338Z,21.55
2022-12-08T10:39:36.911Z,21.62
2022-12-08T10:40:32.457Z,21.56
2022-12-08T10:41:17.443Z,21.62
2022-12-08T10:42:13.043Z,21.56
2022-12-08T10:43:08.535Z,21.59
2022-12-08T10:44:04.076Z,21.50
2022-12-08T10:44:59.684Z,21.50
2022-12-08T10:45:55.218Z,21.48
2022-12-08T10:46:50.838Z,21.43
2022-12-08T10:47:48.800Z,21.51
2022-12-08T10:48:41.921Z,21.51
2022-12-08T10:49:37.472Z,21.55
2022-12-08T10:50:33.002Z,21.58
2022-12-08T10:51:28.564Z,21.48
2022-12-08T10:52:24.081Z,21.50
2022-12-08T10:53:19.623Z,21.59
2022-12-08T10:54:20.565Z,21.55
2022-12-08T10:55:10.703Z,21.55
2022-12-08T10:56:06.244Z,21.66
2022-12-08T10:57:01.786Z,21.53
2022-12-08T10:57:57.333Z,21.56
2022-12-08T10:58:52.867Z,21.53
2022-12-08T10:59:48.398Z,21.51
2022-12-08T11:00:44.128Z,21.63
2022-12-08T11:01:39.647Z,21.53
2022-12-08T11:02:35.112Z,21.53
2022-12-08T11:03:30.555Z,21.53
2022-12-08T11:04:26.102Z,21.56
2022-12-08T11:05:21.646Z,21.58
2022-12-08T11:06:17.188Z,21.55
2022-12-08T11:07:12.754Z,21.55
2022-12-08T11:08:08.336Z,21.43
2022-12-08T11:09:03.831Z,21.45
2022-12-08T11:09:59.386Z,21.48
2022-12-08T11:10:54.966Z,21.58
2022-12-08T11:11:50.508Z,21.60
2022-12-08T11:12:46.046Z,21.48
2022-12-08T11:13:41.589Z,21.55
2022-12-08T11:14:37.126Z,21.50
2022-12-08T11:15:32.661Z,21.50
2022-12-08T11:16:28.313Z,21.48
2022-12-08T11:17:23.760Z,21.53
2022-12-08T11:18:19.289Z,21.59
2022-12-08T11:19:14.866Z,21.56
2022-12-08T11:20:10.407Z,21.59
2022-12-08T11:21:05.955Z,21.51
2022-12-08T11:22:01.495Z,21.55
2022-12-08T11:22:57.054Z,21.45
2022-12-08T11:23:52.571Z,21.58
2022-12-08T11:24:48.125Z,21.55
2022-12-08T11:25:43.665Z,21.55
2022-12-08T11:26:39.217Z,21.51
2022-12-08T11:27:23.888Z,21.40
2022-12-08T11:28:19.419Z,21.40
2022-12-08T11:29:14.980Z,21.51
2022-12-08T11:30:14.307Z,21.50
2022-12-08T11:31:06.116Z,21.53
2022-12-08T11:31:50.836Z,21.58
2022-12-08T11:32:46.290Z,21.44
2022-12-08T11:33:41.850Z,21.58
2022-12-08T11:34:37.882Z,21.53
2022-12-08T11:35:33.428Z,21.41
2022-12-08T11:36:28.971Z,21.48
2022-12-08T11:37:26.610Z,21.65
2022-12-08T11:38:22.356Z,21.47
2022-12-08T11:39:15.595Z,21.51
2022-12-08T11:40:11.143Z,21.58
2022-12-08T11:40:55.813Z,21.48
2022-12-08T11:41:51.354Z,21.48
2022-12-08T11:42:46.886Z,21.48
2022-12-08T11:43:42.421Z,21.48
2022-12-08T11:44:37.970Z,21.50
2022-12-08T11:45:33.624Z,21.51
2022-12-08T11:46:29.126Z,21.51
2022-12-08T11:47:24.650Z,21.51
2022-12-08T11:48:20.192Z,21.55
2022-12-08T11:49:15.740Z,21.55
2022-12-08T11:50:12.167Z,21.47